Agerola, Italy

12:18 AM CEST on May 01, 2017 (GMT +0200)
Ravello Concert Society | | Change Station

Elev 1150 ft 40.65 °N, 14.61 °E | Updated 39 seconds ago

Clear
Clear
55.9 °F
Feels Like 55.9 °F
N
0.0
Wind Variable Wind from NNE
Gusts 0.0 mph

Today
High -- | Low -- °F
--% Chance of Precip.
Yesterday
High -- | Low -- °F
Precip. -- in
Pressure 29.92 in
Visibility -9999.0 miles
Clouds
Dew Point 41 °F
Humidity 57%
Rainfall 0.00 in
Snow Depth Not available.
6:00 AM 7:57 PM
Waxing Crescent, 26% visible
METAR LIRM 302155Z 07002KT CAVOK 10/09 Q1013 RMK SKC VIS MIN 9999 WIND THR06 01002KT BLU
Pressure 29.92 in
Visibility -9999.0 miles
Clouds
Dew Point 41 °F
Humidity 57%
Rainfall 0.00 in
Snow Depth Not available.
6:00 AM 7:57 PM
Waxing Crescent, 26% visible
METAR LIRM 302155Z 07002KT CAVOK 10/09 Q1013 RMK SKC VIS MIN 9999 WIND THR06 01002KT BLU

Get Severe Weather Alerts

Thanks for signing up!

Be on the lookout for a verification email in your inbox.

You'll start receiving the daily forecast at 8 AM.

×

10-Day Weather Forecast

×

Almanac

Astronomy

May. 01, 2017 Rise Set
Actual Time
Civil Twilight
Nautical Twilight
Astronomical Twilight
Moon
Length of Visible Light
Length of Day
Tomorrow will be .
, % of the Moon is Illuminated

Today's Extremes

Country Highs Country Lows

Community

WunderPhotos

WunderBlog® & News

Nearby

Air Quality

  Air Quality AQ Index Pollutant
Not available.

Snow Depth

Station Depth Elevation

Earthquake Activity

City Distance Mag. Time & Date
Minimum magnitude displayed is 2.5.

Coastal Water Temperatures

Place Temperature

Stations

Nearby Weather Stations

Station Location Temp. Windchill Dew Point Humidity Wind Precip. Elev Updated Type